Time;durP1;ratioP1;P1;durP2;ratioP2;P2;SDS_P1;SDS_P2;PMS_P1;PMS_P2;Temp;Humidity;BMP_temperature;BMP_pressure;BME280_temperature;BME280_humidity;BME280_pressure;Samples;Min_cycle;Max_cycle;Signal;HPM_P1;HPM_P2
2021/08/25 00:00:31;;;;;;;32.40;30.80;;;10.60;97.80;;;;;;5052732;28;20462;-88
2021/08/25 00:02:58;;;;;;;38.90;36.87;;;10.50;97.80;;;;;;5052713;28;20902;-87
2021/08/25 00:05:25;;;;;;;38.83;37.03;;;10.40;97.90;;;;;;5052474;28;20814;-88
2021/08/25 00:07:57;;;;;;;34.60;32.93;;;10.30;98.90;;;;;;5052702;28;20459;-87
2021/08/25 00:10:24;;;;;;;36.77;34.97;;;10.30;99.50;;;;;;5051957;28;20454;-86
2021/08/25 00:12:51;;;;;;;40.43;38.50;;;10.20;99.90;;;;;;5052644;28;20449;-88
2021/08/25 00:15:21;;;;;;;41.80;39.50;;;10.20;99.90;;;;;;5052531;28;20452;-85
2021/08/25 00:17:54;;;;;;;49.17;46.67;;;10.20;99.90;;;;;;5052357;28;20531;-87
2021/08/25 00:20:21;;;;;;;50.47;48.27;;;10.20;99.90;;;;;;5052442;28;20967;-86
2021/08/25 00:22:50;;;;;;;51.90;49.50;;;10.20;99.90;;;;;;5052534;28;20549;-85
2021/08/25 00:25:17;;;;;;;39.97;38.07;;;10.10;99.90;;;;;;5051364;28;20493;-85
2021/08/25 00:27:44;;;;;;;33.20;31.60;;;10.10;99.90;;;;;;5052318;28;21011;-87
2021/08/25 00:30:12;;;;;;;40.63;38.73;;;10.00;99.90;;;;;;5052579;28;20481;-87
2021/08/25 00:32:39;;;;;;;52.17;49.87;;;9.90;99.90;;;;;;5052563;28;20453;-87
2021/08/25 00:35:09;;;;;;;56.57;53.83;;;9.90;99.90;;;;;;5052303;28;20454;-87
2021/08/25 00:37:39;;;;;;;62.90;60.20;;;9.90;99.90;;;;;;5052082;28;20587;-88
2021/08/25 00:40:07;;;;;;;66.60;63.90;;;9.90;99.90;;;;;;5051617;28;20949;-86
2021/08/25 00:42:34;;;;;;;56.63;54.13;;;9.90;99.90;;;;;;5052245;28;20884;-86
2021/08/25 00:45:02;;;;;;;57.63;54.90;;;9.80;99.90;;;;;;5052228;28;20963;-84
2021/08/25 00:47:31;;;;;;;65.10;62.50;;;9.80;99.90;;;;;;5055794;28;20536;-86
2021/08/25 00:49:58;;;;;;;63.07;60.47;;;9.70;99.90;;;;;;5056308;28;20460;-88
2021/08/25 00:52:26;;;;;;;77.80;74.60;;;9.60;99.90;;;;;;5055986;28;20461;-87
2021/08/25 00:54:54;;;;;;;79.77;76.67;;;9.70;99.90;;;;;;5054975;28;20543;-87
2021/08/25 00:57:21;;;;;;;84.97;81.27;;;9.60;99.90;;;;;;5055705;28;21025;-86
2021/08/25 00:59:48;;;;;;;75.53;71.97;;;9.60;99.90;;;;;;5055694;28;20548;-86
2021/08/25 01:02:24;;;;;;;81.53;78.27;;;9.50;99.90;;;;;;5055901;28;20488;-88
2021/08/25 01:04:54;;;;;;;96.10;91.63;;;9.40;99.90;;;;;;5055804;28;20505;-86
2021/08/25 01:07:23;;;;;;;102.43;98.07;;;9.40;99.90;;;;;;5055690;28;20516;-85
2021/08/25 01:09:51;;;;;;;103.97;99.77;;;9.40;99.90;;;;;;5054673;28;20459;-85
2021/08/25 01:12:20;;;;;;;111.13;106.73;;;9.40;99.90;;;;;;5055467;28;20450;-87
2021/08/25 01:14:47;;;;;;;115.80;111.10;;;9.40;99.90;;;;;;5055564;28;20559;-87
2021/08/25 01:17:19;;;;;;;110.50;106.00;;;9.50;99.90;;;;;;5055409;28;20475;-87
2021/08/25 01:19:55;;;;;;;116.00;111.13;;;9.50;99.90;;;;;;5055531;28;20455;-88
2021/08/25 01:22:25;;;;;;;128.60;123.00;;;9.40;99.90;;;;;;5055471;28;20528;-86
2021/08/25 01:24:57;;;;;;;126.10;120.60;;;9.60;99.90;;;;;;5054197;28;20491;-87
2021/08/25 01:27:31;;;;;;;137.77;131.97;;;9.60;99.90;;;;;;5054779;28;20568;-85
2021/08/25 01:30:03;;;;;;;128.87;123.27;;;9.70;99.90;;;;;;5055149;28;20771;-86
2021/08/25 01:32:30;;;;;;;129.07;123.57;;;9.60;99.90;;;;;;5055201;28;20496;-87
2021/08/25 01:34:58;;;;;;;120.30;115.47;;;9.50;99.90;;;;;;5055353;28;20474;-86
2021/08/25 01:37:27;;;;;;;131.93;126.20;;;9.40;99.90;;;;;;5054991;28;20863;-87
2021/08/25 01:39:55;;;;;;;134.20;128.27;;;9.40;99.90;;;;;;5054322;28;20555;-86
2021/08/25 01:42:23;;;;;;;132.87;127.13;;;9.40;99.90;;;;;;5055096;28;20447;-88
2021/08/25 01:44:51;;;;;;;135.70;129.73;;;9.40;99.90;;;;;;5055072;28;20490;-87
2021/08/25 01:47:22;;;;;;;134.73;128.63;;;9.30;99.90;;;;;;5055085;28;20448;-88
2021/08/25 01:49:49;;;;;;;137.60;131.70;;;9.30;99.90;;;;;;5055157;28;20447;-87
2021/08/25 01:52:20;;;;;;;143.37;137.23;;;9.30;99.90;;;;;;5055485;28;20486;-88
2021/08/25 01:54:48;;;;;;;157.27;150.03;;;9.30;99.90;;;;;;5055153;28;20944;-88
2021/08/25 01:57:15;;;;;;;163.97;156.57;;;9.40;99.90;;;;;;5055301;28;20455;-87
2021/08/25 01:59:47;;;;;;;164.53;157.07;;;9.40;99.90;;;;;;5055026;28;21025;-87
2021/08/25 02:02:17;;;;;;;161.27;154.03;;;9.50;99.90;;;;;;5054894;28;20452;-84
2021/08/25 02:04:45;;;;;;;166.80;159.23;;;9.40;99.90;;;;;;5054706;28;20530;-86
2021/08/25 02:07:12;;;;;;;174.77;167.07;;;9.50;99.90;;;;;;5054923;28;20522;-88
2021/08/25 02:09:39;;;;;;;170.17;162.47;;;9.50;99.90;;;;;;5053798;28;20458;-86
2021/08/25 02:12:07;;;;;;;174.03;165.53;;;9.40;99.90;;;;;;5054733;28;20447;-86
2021/08/25 02:14:34;;;;;;;170.47;162.37;;;9.40;99.90;;;;;;5054529;28;20455;-85
2021/08/25 02:17:02;;;;;;;157.13;149.67;;;9.40;99.90;;;;;;5054368;28;20497;-87
2021/08/25 02:19:29;;;;;;;169.30;161.50;;;9.30;99.90;;;;;;5054345;28;20541;-87
2021/08/25 02:21:57;;;;;;;173.47;165.43;;;9.10;99.90;;;;;;5054380;28;20503;-88
2021/08/25 02:24:26;;;;;;;180.03;171.53;;;9.20;99.90;;;;;;5053507;28;20459;-85
2021/08/25 02:26:53;;;;;;;178.77;170.27;;;9.20;99.90;;;;;;5054464;28;20554;-88
2021/08/25 02:29:20;;;;;;;181.90;173.57;;;9.20;99.90;;;;;;5054134;28;21009;-86
2021/08/25 02:31:47;;;;;;;176.20;167.83;;;9.30;99.90;;;;;;5054331;28;20948;-85
2021/08/25 02:34:14;;;;;;;183.80;175.00;;;9.30;99.90;;;;;;5054256;28;20451;-87
2021/08/25 02:36:41;;;;;;;182.10;173.47;;;9.30;99.90;;;;;;5053916;28;20485;-86
2021/08/25 02:39:10;;;;;;;178.27;169.73;;;9.40;99.90;;;;;;5052991;28;20487;-87
2021/08/25 02:41:37;;;;;;;186.23;177.60;;;9.40;99.90;;;;;;5054004;28;21012;-85
2021/08/25 02:44:04;;;;;;;184.03;174.93;;;9.30;99.90;;;;;;5053903;28;20489;-83
2021/08/25 02:46:34;;;;;;;184.37;175.77;;;9.10;99.90;;;;;;5053812;28;20536;-84
2021/08/25 02:49:01;;;;;;;183.07;174.47;;;9.00;99.90;;;;;;5053851;28;20540;-84
2021/08/25 02:51:27;;;;;;;193.23;183.77;;;9.00;99.90;;;;;;5053720;28;20455;-87
2021/08/25 02:53:56;;;;;;;195.70;186.50;;;9.00;99.90;;;;;;5052948;28;20458;-86
2021/08/25 02:56:26;;;;;;;191.83;182.87;;;8.90;99.90;;;;;;5053531;28;20985;-86
2021/08/25 02:58:53;;;;;;;184.50;175.70;;;9.10;99.90;;;;;;5053511;28;20582;-85
2021/08/25 03:01:20;;;;;;;193.47;184.07;;;9.10;99.90;;;;;;5053497;28;20454;-85
2021/08/25 03:03:48;;;;;;;188.93;179.47;;;9.00;99.90;;;;;;5053221;28;20544;-85
2021/08/25 03:06:15;;;;;;;193.83;184.70;;;9.00;99.90;;;;;;5053454;28;20494;-85
2021/08/25 03:08:41;;;;;;;196.50;187.10;;;9.00;99.90;;;;;;5051604;28;20473;-84
2021/08/25 03:11:10;;;;;;;200.47;190.67;;;8.80;99.90;;;;;;5053366;28;20460;-86
2021/08/25 03:13:39;;;;;;;203.30;193.30;;;8.90;99.90;;;;;;5053473;28;20483;-85
2021/08/25 03:16:06;;;;;;;206.67;196.90;;;9.00;99.90;;;;;;5053278;28;20487;-85
2021/08/25 03:18:33;;;;;;;203.33;193.63;;;9.00;99.90;;;;;;5053264;28;20552;-86
2021/08/25 03:21:00;;;;;;;201.33;191.43;;;9.00;99.90;;;;;;5053158;28;20972;-85
2021/08/25 03:23:27;;;;;;;199.97;190.17;;;8.90;99.90;;;;;;5052893;28;20538;-84
2021/08/25 03:25:54;;;;;;;201.20;191.60;;;8.90;99.90;;;;;;5052728;28;20494;-84
2021/08/25 03:28:21;;;;;;;214.53;203.07;;;8.90;99.90;;;;;;5053134;28;20509;-83
2021/08/25 03:30:50;;;;;;;205.67;194.47;;;8.80;99.90;;;;;;5053253;28;20451;-85
2021/08/25 03:33:16;;;;;;;209.10;198.57;;;8.90;99.90;;;;;;5053167;28;20814;-86
2021/08/25 03:35:43;;;;;;;199.30;189.77;;;8.80;99.90;;;;;;5053032;28;20479;-84
2021/08/25 03:38:10;;;;;;;200.10;190.20;;;8.90;99.90;;;;;;5052826;28;20916;-85
2021/08/25 03:40:37;;;;;;;201.20;190.47;;;8.70;99.90;;;;;;5051544;28;20978;-84
2021/08/25 03:43:04;;;;;;;205.33;194.97;;;8.70;99.90;;;;;;5052938;28;20510;-85
2021/08/25 03:45:31;;;;;;;205.90;195.73;;;8.70;99.90;;;;;;5052848;28;20478;-86
2021/08/25 03:47:59;;;;;;;217.37;207.17;;;8.60;99.90;;;;;;5052917;28;20451;-84
2021/08/25 03:50:26;;;;;;;216.33;205.53;;;8.50;99.90;;;;;;5052670;28;20508;-83
2021/08/25 03:52:53;;;;;;;217.67;206.47;;;8.60;99.90;;;;;;5052849;28;20452;-85
2021/08/25 03:55:25;;;;;;;225.20;214.20;;;8.70;99.90;;;;;;5051675;28;20459;-86
2021/08/25 03:57:52;;;;;;;220.87;209.97;;;8.70;99.90;;;;;;5052586;28;20466;-88
2021/08/25 04:00:19;;;;;;;230.50;219.37;;;8.70;99.90;;;;;;5052738;28;20549;-84
2021/08/25 04:02:45;;;;;;;216.10;205.30;;;8.80;99.90;;;;;;5052623;28;20461;-84
2021/08/25 04:05:14;;;;;;;205.93;196.03;;;8.60;99.90;;;;;;5052680;28;20448;-85
2021/08/25 04:07:41;;;;;;;217.80;206.93;;;8.70;99.90;;;;;;5052754;28;20536;-85
2021/08/25 04:10:08;;;;;;;220.30;209.70;;;8.70;99.90;;;;;;5051624;28;20858;-85
2021/08/25 04:12:35;;;;;;;217.63;207.03;;;8.60;99.90;;;;;;5052793;28;20481;-85
2021/08/25 04:15:04;;;;;;;217.17;205.97;;;8.50;99.90;;;;;;5052655;28;20538;-86
2021/08/25 04:17:31;;;;;;;207.90;197.33;;;8.40;99.90;;;;;;5052675;28;20514;-86
2021/08/25 04:19:58;;;;;;;202.13;191.93;;;8.30;99.90;;;;;;5053679;28;20486;-85
2021/08/25 04:22:26;;;;;;;205.37;194.87;;;8.40;99.90;;;;;;5056476;28;20520;-85
2021/08/25 04:24:52;;;;;;;215.83;205.33;;;8.30;99.90;;;;;;5055509;28;20451;-81
2021/08/25 04:27:19;;;;;;;203.07;192.50;;;8.20;99.90;;;;;;5056539;28;20494;-86
2021/08/25 04:29:46;;;;;;;211.83;201.47;;;8.20;99.90;;;;;;5056882;28;20918;-85
2021/08/25 04:32:13;;;;;;;221.73;211.03;;;8.30;99.90;;;;;;5056375;28;20527;-87
2021/08/25 04:34:40;;;;;;;221.50;210.40;;;8.40;99.90;;;;;;5056221;28;20458;-85
2021/08/25 04:37:07;;;;;;;212.87;202.17;;;8.30;99.90;;;;;;5056444;28;20498;-85
2021/08/25 04:39:35;;;;;;;215.17;204.27;;;8.30;99.90;;;;;;5054964;28;20599;-83
2021/08/25 04:42:02;;;;;;;217.73;207.17;;;8.20;99.90;;;;;;5056461;28;20544;-87
2021/08/25 04:44:29;;;;;;;216.50;205.30;;;8.30;99.90;;;;;;5056015;28;20489;-85
2021/08/25 04:46:56;;;;;;;216.63;205.63;;;8.40;99.90;;;;;;5056454;28;20459;-84
2021/08/25 04:49:23;;;;;;;212.97;202.10;;;8.60;99.90;;;;;;5057032;28;20805;-79
2021/08/25 04:51:50;;;;;;;212.03;201.07;;;8.50;99.90;;;;;;5056317;28;20460;-80
2021/08/25 04:54:16;;;;;;;206.63;195.87;;;8.60;99.90;;;;;;5054891;28;20550;-79
2021/08/25 04:56:45;;;;;;;215.20;204.50;;;8.50;99.90;;;;;;5055950;28;20454;-79
2021/08/25 04:59:11;;;;;;;209.30;198.20;;;8.50;99.90;;;;;;5055775;28;20573;-81
2021/08/25 05:01:38;;;;;;;212.37;200.77;;;8.60;99.90;;;;;;5055497;28;20475;-77
2021/08/25 05:04:05;;;;;;;214.13;202.83;;;8.60;99.90;;;;;;5055703;28;20452;-77
2021/08/25 05:06:32;;;;;;;227.13;215.30;;;8.70;99.90;;;;;;5055730;28;20465;-77
2021/08/25 05:08:58;;;;;;;213.07;201.97;;;8.80;99.90;;;;;;5054376;28;20485;-80
2021/08/25 05:11:26;;;;;;;215.40;204.10;;;8.90;99.90;;;;;;5055657;28;20462;-85
2021/08/25 05:13:57;;;;;;;221.13;209.33;;;9.00;99.90;;;;;;5055701;28;20455;-84
2021/08/25 05:16:24;;;;;;;226.33;214.37;;;9.10;99.90;;;;;;5055445;28;20452;-86
2021/08/25 05:18:50;;;;;;;222.87;211.07;;;9.10;99.90;;;;;;5055598;28;20508;-87
2021/08/25 05:21:17;;;;;;;228.50;216.80;;;9.10;99.90;;;;;;5055604;28;20451;-86
2021/08/25 05:23:44;;;;;;;227.73;215.17;;;9.20;99.90;;;;;;5054624;28;20513;-86
2021/08/25 05:26:11;;;;;;;231.40;219.20;;;9.20;99.90;;;;;;5055343;28;20480;-84
2021/08/25 05:28:38;;;;;;;206.33;195.10;;;9.30;99.90;;;;;;5055316;28;20538;-86
2021/08/25 05:31:06;;;;;;;203.77;192.13;;;9.50;99.90;;;;;;5054593;28;20455;-87
2021/08/25 05:33:33;;;;;;;186.17;176.17;;;9.80;99.90;;;;;;5055229;28;20514;-78
2021/08/25 05:36:00;;;;;;;173.27;163.73;;;9.90;99.90;;;;;;5055252;28;20453;-84
2021/08/25 05:38:27;;;;;;;151.03;142.60;;;10.10;99.90;;;;;;5054647;28;20946;-85
2021/08/25 05:40:54;;;;;;;133.00;126.37;;;10.20;99.90;;;;;;5054711;28;20538;-83
2021/08/25 05:43:21;;;;;;;108.87;104.00;;;10.40;99.90;;;;;;5055040;28;21043;-84
2021/08/25 05:45:48;;;;;;;90.40;86.53;;;10.40;99.90;;;;;;5054906;28;20459;-84
2021/08/25 05:48:16;;;;;;;84.47;80.60;;;10.40;99.90;;;;;;5054813;28;20487;-84
2021/08/25 05:50:43;;;;;;;75.57;72.40;;;10.50;99.90;;;;;;5054599;28;20529;-80
2021/08/25 05:53:13;;;;;;;75.27;71.97;;;10.50;99.90;;;;;;5054882;28;20462;-82
2021/08/25 05:55:40;;;;;;;83.97;80.10;;;10.60;99.90;;;;;;5053897;28;20468;-81
2021/08/25 05:58:07;;;;;;;88.27;84.13;;;10.60;99.90;;;;;;5054706;28;20508;-81
2021/08/25 06:00:35;;;;;;;86.17;82.27;;;10.80;99.90;;;;;;5054765;28;20501;-84
2021/08/25 06:03:02;;;;;;;96.87;92.40;;;10.90;99.90;;;;;;5054736;28;20542;-84
2021/08/25 06:05:30;;;;;;;107.53;101.60;;;11.00;99.90;;;;;;5054773;28;20497;-82
2021/08/25 06:07:57;;;;;;;105.30;99.53;;;11.20;99.90;;;;;;5054814;28;20459;-83
2021/08/25 06:10:24;;;;;;;108.03;102.80;;;11.30;99.90;;;;;;5053486;28;20483;-80
2021/08/25 06:12:51;;;;;;;117.70;111.60;;;11.40;99.90;;;;;;5054089;28;20465;-86
2021/08/25 06:15:18;;;;;;;124.50;118.40;;;11.50;99.90;;;;;;5054670;28;20955;-84
2021/08/25 06:17:45;;;;;;;130.27;123.33;;;11.50;99.90;;;;;;5054537;28;20474;-81
2021/08/25 06:20:13;;;;;;;132.93;126.37;;;11.60;99.90;;;;;;5054470;28;20486;-83
2021/08/25 06:22:41;;;;;;;119.93;114.07;;;11.70;99.90;;;;;;5054233;28;20541;-81
2021/08/25 06:25:10;;;;;;;120.20;114.20;;;11.80;99.90;;;;;;5053480;28;20462;-82
2021/08/25 06:27:41;;;;;;;109.47;104.23;;;11.90;99.90;;;;;;5053958;28;20479;-84
2021/08/25 06:30:09;;;;;;;110.10;105.10;;;11.90;99.90;;;;;;5054075;28;20491;-85
2021/08/25 06:32:35;;;;;;;98.23;93.80;;;12.00;99.90;;;;;;5054229;28;20495;-84
2021/08/25 06:35:02;;;;;;;91.83;87.73;;;12.10;99.90;;;;;;5054268;28;20464;-87
2021/08/25 06:37:29;;;;;;;79.03;75.20;;;12.20;99.90;;;;;;5053945;28;20514;-86
2021/08/25 06:39:58;;;;;;;73.60;70.10;;;12.20;99.90;;;;;;5052867;28;20459;-86
2021/08/25 06:42:24;;;;;;;65.63;62.20;;;12.20;99.90;;;;;;5053994;28;20535;-87
2021/08/25 06:44:51;;;;;;;73.90;70.30;;;12.30;99.90;;;;;;5053851;28;20480;-87
2021/08/25 06:47:18;;;;;;;67.23;63.93;;;12.40;99.90;;;;;;5053877;28;20543;-86
2021/08/25 06:49:45;;;;;;;63.27;59.77;;;12.50;99.90;;;;;;5053558;28;20471;-87
2021/08/25 06:52:12;;;;;;;40.50;38.40;;;12.80;99.90;;;;;;5053823;28;20461;-86
2021/08/25 06:54:50;;;;;;;35.03;32.60;;;12.80;99.90;;;;;;5052345;28;20483;-85
2021/08/25 06:57:18;;;;;;;30.73;28.73;;;12.90;99.90;;;;;;5053643;28;20493;-80
2021/08/25 06:59:45;;;;;;;30.50;28.70;;;13.00;99.90;;;;;;5053384;28;20454;-85
2021/08/25 07:02:31;;;;;;;37.10;34.37;;;13.10;99.90;;;;;;5053508;28;20543;-82
2021/08/25 07:05:12;;;;;;;26.33;24.07;;;13.30;99.90;;;;;;5053320;28;20966;-87
2021/08/25 07:07:38;;;;;;;24.90;23.10;;;13.40;99.90;;;;;;5053457;28;20647;-79
2021/08/25 07:10:12;;;;;;;21.53;20.13;;;13.50;99.90;;;;;;5052345;28;20489;-84
2021/08/25 07:12:43;;;;;;;19.43;16.80;;;13.70;99.90;;;;;;5053223;28;20494;-86
2021/08/25 07:15:15;;;;;;;12.30;11.23;;;13.80;97.70;;;;;;5053376;28;20452;-84
2021/08/25 07:17:47;;;;;;;13.30;9.73;;;13.90;95.60;;;;;;5053788;28;20448;-86
2021/08/25 07:20:15;;;;;;;18.00;9.07;;;14.00;92.70;;;;;;5053185;28;20451;-79
2021/08/25 07:22:42;;;;;;;14.23;7.37;;;14.10;92.00;;;;;;5052655;28;20455;-88
2021/08/25 07:25:11;;;;;;;12.70;7.30;;;14.20;88.50;;;;;;5051975;28;20524;-87
2021/08/25 07:27:39;;;;;;;13.53;8.60;;;14.30;85.70;;;;;;5053135;28;20547;-84
2021/08/25 07:30:26;;;;;;;11.67;6.73;;;14.50;90.00;;;;;;5032460;28;20526;-84
2021/08/25 07:33:03;;;;;;;7.53;5.73;;;14.60;85.80;;;;;;5032125;28;20452;-85
2021/08/25 07:35:31;;;;;;;11.23;6.40;;;14.70;84.60;;;;;;5031821;28;20991;-86
2021/08/25 07:38:11;;;;;;;7.90;5.93;;;14.80;85.70;;;;;;5031689;28;20487;-85
2021/08/25 07:43:21;;;;;;;10.87;5.33;;;15.10;81.60;;;;;;5031505;28;20458;-85
2021/08/25 07:45:51;;;;;;;10.67;6.03;;;15.20;78.00;;;;;;5031999;28;20530;-87
2021/08/25 07:48:19;;;;;;;7.17;4.73;;;15.30;73.90;;;;;;5033451;28;20495;-85
2021/08/25 07:50:49;;;;;;;9.53;5.10;;;15.40;72.80;;;;;;5051430;28;20490;-85
2021/08/25 07:53:16;;;;;;;10.83;5.50;;;15.50;63.90;;;;;;5051833;28;20462;-87
2021/08/25 07:55:45;;;;;;;8.27;5.53;;;15.80;64.90;;;;;;5050339;28;20546;-87
2021/08/25 07:58:22;;;;;;;9.57;5.37;;;16.00;58.30;;;;;;5051904;28;20463;-86
2021/08/25 08:01:10;;;;;;;11.03;4.83;;;16.40;56.00;;;;;;5052638;28;20451;-88
2021/08/25 08:03:36;;;;;;;7.43;4.67;;;16.80;56.10;;;;;;5052482;28;20491;-80
2021/08/25 08:13:01;;;;;;;10.20;3.90;;;18.10;38.40;;;;;;4969676;28;20439;-84
2021/08/25 08:15:30;;;;;;;15.80;4.23;;;18.70;39.50;;;;;;4971703;28;20465;-80
2021/08/25 08:18:06;;;;;;;7.90;3.20;;;18.90;32.20;;;;;;4971560;28;20513;-79
2021/08/25 08:20:33;;;;;;;9.20;4.00;;;19.00;27.50;;;;;;5026226;28;20485;-79
2021/08/25 08:23:00;;;;;;;8.60;3.77;;;19.40;27.00;;;;;;5052441;28;20825;-79
2021/08/25 08:25:27;;;;;;;7.50;3.93;;;19.40;26.20;;;;;;5051046;28;20479;-80
2021/08/25 08:27:54;;;;;;;8.17;4.40;;;19.80;26.10;;;;;;5052347;28;20451;-79
2021/08/25 08:30:23;;;;;;;6.43;3.60;;;20.00;24.90;;;;;;5052287;28;20538;-80
2021/08/25 08:32:50;;;;;;;15.10;4.93;;;20.60;25.70;;;;;;5052216;28;20465;-79
2021/08/25 08:35:18;;;;;;;8.57;3.83;;;20.90;24.80;;;;;;5052109;28;20454;-79
2021/08/25 08:37:45;;;;;;;14.73;4.47;;;21.00;20.50;;;;;;5052151;28;20837;-79
2021/08/25 08:40:13;;;;;;;9.03;4.03;;;21.50;20.50;;;;;;5051164;28;20573;-79
2021/08/25 08:42:40;;;;;;;9.93;3.87;;;21.70;21.00;;;;;;5052226;28;20463;-79
2021/08/25 08:45:10;;;;;;;8.23;3.87;;;22.00;21.10;;;;;;5052100;28;20951;-79
2021/08/25 08:47:37;;;;;;;10.90;3.87;;;22.10;17.20;;;;;;5052259;28;20491;-79
2021/08/25 08:50:05;;;;;;;8.70;4.30;;;22.00;13.70;;;;;;5052289;28;20812;-86
2021/08/25 08:52:34;;;;;;;7.27;3.70;;;22.30;16.70;;;;;;5052216;28;20546;-86
2021/08/25 08:55:01;;;;;;;7.80;3.97;;;23.00;18.20;;;;;;5051157;28;20459;-88
2021/08/25 08:57:31;;;;;;;9.70;3.90;;;23.20;10.70;;;;;;5049537;28;20462;-84
2021/08/25 09:00:00;;;;;;;6.90;3.23;;;23.60;12.40;;;;;;5050972;28;20475;-90
2021/08/25 09:02:44;;;;;;;5.63;2.73;;;23.60;6.20;;;;;;5050605;28;20459;-83
2021/08/25 09:05:19;;;;;;;9.03;3.13;;;23.70;5.70;;;;;;5047721;28;20447;-85
2021/08/25 09:07:52;;;;;;;6.97;3.37;;;24.30;6.70;;;;;;5053250;28;20465;-84
2021/08/25 09:10:30;;;;;;;7.47;3.00;;;24.20;5.70;;;;;;5052820;28;20451;-86
2021/08/25 09:12:59;;;;;;;7.40;3.30;;;23.70;1.30;;;;;;5054509;28;20462;-84
2021/08/25 09:15:28;;;;;;;5.90;2.83;;;23.70;6.00;;;;;;5053985;28;20451;-78
2021/08/25 09:17:59;;;;;;;6.93;3.17;;;23.50;3.70;;;;;;5053995;28;20487;-78
2021/08/25 09:20:28;;;;;;;10.50;3.00;;;23.70;4.50;;;;;;5054569;28;20489;-83
2021/08/25 09:23:13;;;;;;;6.50;3.20;;;23.60;4.50;;;;;;5055437;28;20451;-83
2021/08/25 09:25:41;;;;;;;7.03;3.23;;;24.00;4.10;;;;;;5054152;28;20467;-81
2021/08/25 09:28:09;;;;;;;10.63;4.70;;;24.50;4.30;;;;;;5055365;28;20451;-80
2021/08/25 09:30:50;;;;;;;7.57;3.57;;;24.30;1.60;;;;;;5055324;28;20453;-81
2021/08/25 09:33:17;;;;;;;7.83;3.80;;;24.70;1.00;;;;;;5055310;28;20451;-81
2021/08/25 10:02:51;;;;;;;7.47;2.87;;;25.20;1.00;;;;;;4941885;28;20455;-90
2021/08/25 10:05:33;;;;;;;6.30;2.83;;;24.70;1.00;;;;;;4916140;29;20457;-88
2021/08/25 10:08:36;;;;;;;;;;;;;;;;;;;;;
2021/08/25 10:11:44;;;;;;;;;;;;;;;;;;;;;
2021/08/25 10:15:17;;;;;;;;;;;;;;;;;;;;;
2021/08/25 11:07:15;;;;;;;9.47;3.20;;;26.60;1.00;;;;;;4790165;29;20581;-87
2021/08/25 11:13:28;;;;;;;8.03;3.40;;;27.70;1.00;;;;;;4901982;29;20985;-89
2021/08/25 11:16:28;;;;;;;8.27;3.53;;;27.30;1.00;;;;;;4915098;29;20465;-88
2021/08/25 11:19:41;;;;;;;;;;;;;;;;;;;;;
2021/08/25 11:35:12;;;;;;;;;;;;;;;;;;;;;
2021/08/25 11:38:22;;;;;;;;;;;;;;;;;;;;;
2021/08/25 11:44:12;;;;;;;6.77;2.93;;;28.20;1.00;;;;;;4914718;29;20464;-89
2021/08/25 11:57:11;;;;;;;;;;;;;;;;;;;;;
2021/08/25 12:03:27;;;;;;;8.27;3.40;;;26.00;1.00;;;;;;4910829;29;20564;-87
2021/08/25 12:06:43;;;;;;;;;;;;;;;;;;;;;
2021/08/25 12:13:08;;;;;;;6.40;2.77;;;26.40;1.00;;;;;;4803335;29;20499;-87
2021/08/25 12:16:32;;;;;;;6.40;3.57;;;26.50;1.00;;;;;;4799250;29;20458;-87
2021/08/25 12:19:47;;;;;;;6.93;3.30;;;28.00;1.00;;;;;;4936702;28;20450;-92
2021/08/25 12:26:15;;;;;;;7.93;3.70;;;25.80;1.00;;;;;;4869274;29;21138;-88
2021/08/25 12:33:02;;;;;;;;;;;;;;;;;;;;;
2021/08/25 12:45:20;;;;;;;;;;;;;;;;;;;;;
2021/08/25 13:48:08;;;;;;;10.40;5.30;;;27.40;1.00;;;;;;4798621;29;20989;-81
2021/08/25 13:50:34;;;;;;;8.50;4.23;;;26.70;1.00;;;;;;4880123;29;20485;-81
2021/08/25 13:53:01;;;;;;;12.60;6.40;;;26.60;1.00;;;;;;4948425;28;20461;-79
2021/08/25 13:55:28;;;;;;;12.87;4.80;;;26.20;1.00;;;;;;4990280;28;20470;-78
2021/08/25 13:57:55;;;;;;;12.00;5.50;;;26.00;1.00;;;;;;5021389;28;20435;-78
2021/08/25 14:00:22;;;;;;;10.00;5.30;;;25.40;1.00;;;;;;5033419;28;20463;-78
2021/08/25 14:02:49;;;;;;;13.10;5.20;;;25.70;1.00;;;;;;5032824;28;22586;-79
2021/08/25 14:05:18;;;;;;;9.20;4.40;;;25.80;1.00;;;;;;5033264;28;20502;-77
2021/08/25 14:07:45;;;;;;;10.20;4.37;;;26.20;1.00;;;;;;5033752;28;20483;-78
2021/08/25 14:10:13;;;;;;;11.80;4.60;;;26.50;1.00;;;;;;5015332;28;20463;-78
2021/08/25 14:12:40;;;;;;;9.50;3.97;;;26.60;1.00;;;;;;5033218;28;20510;-78
2021/08/25 14:15:08;;;;;;;9.23;4.30;;;27.50;1.00;;;;;;5032945;28;20447;-75
2021/08/25 14:17:35;;;;;;;11.50;4.60;;;27.70;1.00;;;;;;5032419;28;20458;-75
2021/08/25 14:20:02;;;;;;;7.20;3.60;;;27.80;1.00;;;;;;5033229;28;20456;-78
2021/08/25 14:22:30;;;;;;;10.20;3.83;;;26.70;1.00;;;;;;5032849;28;20435;-77
2021/08/25 14:24:57;;;;;;;10.53;5.10;;;26.40;1.00;;;;;;5031672;28;20431;-77
2021/08/25 14:27:23;;;;;;;7.80;3.90;;;26.10;1.00;;;;;;5033112;28;20575;-77
2021/08/25 14:29:50;;;;;;;12.20;4.27;;;26.30;1.00;;;;;;5032887;28;20482;-75
2021/08/25 14:32:17;;;;;;;7.17;4.03;;;26.30;1.00;;;;;;5031099;28;20940;-75
2021/08/25 14:34:44;;;;;;;11.23;3.60;;;26.80;1.00;;;;;;5032763;28;20979;-77
2021/08/25 14:37:11;;;;;;;8.73;4.30;;;26.50;1.00;;;;;;5039855;28;20453;-76
2021/08/25 14:39:39;;;;;;;8.00;4.00;;;27.80;1.00;;;;;;5052686;28;20823;-78
2021/08/25 14:42:19;;;;;;;7.60;3.70;;;27.70;1.00;;;;;;5053713;28;20455;-76
2021/08/25 14:44:46;;;;;;;8.17;3.70;;;26.80;1.00;;;;;;5053687;28;20773;-77
2021/08/25 14:47:13;;;;;;;6.83;3.17;;;26.80;1.00;;;;;;5053935;28;20501;-76
2021/08/25 14:49:40;;;;;;;8.40;3.70;;;26.50;1.00;;;;;;5053858;28;20440;-78
2021/08/25 14:52:07;;;;;;;7.83;3.53;;;26.00;1.00;;;;;;5053622;28;20487;-75
2021/08/25 14:54:37;;;;;;;9.00;4.40;;;26.10;1.00;;;;;;5052327;28;20454;-80
2021/08/25 14:57:05;;;;;;;9.33;3.70;;;26.00;1.00;;;;;;5053707;28;20455;-79
2021/08/25 14:59:33;;;;;;;9.57;2.73;;;25.80;1.00;;;;;;5053587;28;20498;-79
2021/08/25 15:02:00;;;;;;;5.37;2.23;;;25.00;1.00;;;;;;5053643;28;20483;-80
2021/08/25 15:04:27;;;;;;;9.87;3.13;;;25.10;1.00;;;;;;5052516;28;20491;-80
2021/08/25 15:06:53;;;;;;;7.83;2.50;;;25.50;1.00;;;;;;5053302;28;20499;-80
2021/08/25 15:09:20;;;;;;;8.67;3.70;;;25.50;1.00;;;;;;5052383;28;20490;-80
2021/08/25 15:11:47;;;;;;;7.27;3.60;;;25.40;1.00;;;;;;5053161;28;20478;-81
2021/08/25 15:14:17;;;;;;;8.10;3.50;;;25.20;1.00;;;;;;5053412;28;20430;-79
2021/08/25 15:16:46;;;;;;;8.10;3.27;;;25.10;1.00;;;;;;5053363;28;20550;-80
2021/08/25 15:19:12;;;;;;;6.20;3.60;;;25.00;1.00;;;;;;5053173;28;20543;-80
2021/08/25 15:21:39;;;;;;;8.50;3.50;;;25.40;1.00;;;;;;5053093;28;20805;-80
2021/08/25 15:24:06;;;;;;;6.73;2.57;;;25.40;1.00;;;;;;5051554;28;20845;-78
2021/08/25 15:26:33;;;;;;;7.30;2.90;;;25.10;1.00;;;;;;5053122;28;20458;-80
2021/08/25 15:29:01;;;;;;;7.57;2.70;;;25.10;1.00;;;;;;5053129;28;20475;-79
2021/08/25 15:31:31;;;;;;;7.17;3.60;;;25.30;1.00;;;;;;5053019;28;20546;-78
2021/08/25 15:33:58;;;;;;;10.27;3.20;;;25.10;1.00;;;;;;5053053;28;20455;-80
2021/08/25 15:36:25;;;;;;;7.97;3.47;;;24.90;1.00;;;;;;5053333;28;20788;-79
2021/08/25 15:38:55;;;;;;;7.57;3.67;;;25.30;1.00;;;;;;5051753;28;20456;-80
2021/08/25 15:41:22;;;;;;;8.57;3.90;;;25.50;1.00;;;;;;5052965;28;20532;-81
2021/08/25 15:43:50;;;;;;;10.07;3.30;;;25.70;1.00;;;;;;5053176;28;20520;-80
2021/08/25 15:46:18;;;;;;;7.43;3.30;;;25.90;1.00;;;;;;5053084;28;20437;-81
2021/08/25 15:48:46;;;;;;;10.27;3.33;;;26.20;1.00;;;;;;5052984;28;20458;-75
2021/08/25 15:51:13;;;;;;;6.77;3.50;;;26.10;1.00;;;;;;5052865;28;20452;-78
2021/08/25 15:53:41;;;;;;;7.40;3.43;;;26.40;1.00;;;;;;5052366;28;20487;-74
2021/08/25 15:56:07;;;;;;;8.37;3.70;;;26.00;1.00;;;;;;5052334;28;20458;-74
2021/08/25 15:58:34;;;;;;;8.50;3.73;;;24.90;1.00;;;;;;5052808;28;20448;-74
2021/08/25 16:01:01;;;;;;;23.67;5.53;;;24.70;1.00;;;;;;5052673;28;20458;-74
2021/08/25 16:03:29;;;;;;;6.10;2.97;;;25.60;1.00;;;;;;5052759;28;20459;-74
2021/08/25 16:05:57;;;;;;;7.00;3.67;;;25.30;1.00;;;;;;5052661;28;20462;-77
2021/08/25 16:08:24;;;;;;;6.40;3.07;;;24.90;1.00;;;;;;5052731;28;20460;-77
2021/08/25 16:10:51;;;;;;;7.17;3.30;;;24.70;1.00;;;;;;5051526;28;20455;-77
2021/08/25 16:13:18;;;;;;;7.90;3.43;;;24.70;1.00;;;;;;5052589;28;20490;-79
2021/08/25 16:15:44;;;;;;;8.10;4.10;;;24.20;1.00;;;;;;5053317;28;20826;-79
2021/08/25 16:18:11;;;;;;;8.90;3.30;;;23.80;1.00;;;;;;5056427;28;20454;-77
2021/08/25 16:20:38;;;;;;;6.33;3.30;;;23.50;1.00;;;;;;5056800;28;20501;-76